Filia Ariea — PIET — position and weather

sailwx.info

Track history (hours):
 
Tides and Currents Weather Stations Pressure Air Temp Water Temp Dewpoint Dewpoint Depression Visibility Wind Speed Wind Dir Waves Ship Positions

Filia Ariea

Last reported at 2015-Aug-02 03:31 UTC. Time now 2015-Aug-02 04:22 UTC.
Position N 52°48' E 001°40'.

Length 90 m; draft 3.2 m.

Type: Cargo ship. MMSI: 244662000.

Date/timePositionNaut miles runAvg speedWind from/ knotsBaromVisibWave heightAir tempDewpointWater temp
2015-Aug-02 03:31N 52°48' E 001°40'0 0.0
2015-Aug-02 02:33N 52°48' E 001°40'0 0.0
2015-Aug-02 01:33N 52°48' E 001°40'0 0.0
2015-Aug-02 00:29N 52°48' E 001°40'0 0.1
2015-Aug-01 23:29N 52°48' E 001°40'0 0.1
2015-Aug-01 22:29N 52°48' E 001°41'0 0.0
2015-Aug-01 21:31N 52°48' E 001°40'0 0.0
2015-Aug-01 20:28N 52°48' E 001°40'0 0.0
2015-Aug-01 19:33N 52°48' E 001°40'0 0.0
2015-Aug-01 18:33N 52°48' E 001°40'0 0.1
2015-Aug-01 17:32N 52°48' E 001°40'0 0.1
2015-Aug-01 16:32N 52°48' E 001°40'0 0.0
2015-Aug-01 15:32N 52°48' E 001°40'0 0.0
2015-Aug-01 14:31N 52°48' E 001°40'0 0.0
2015-Aug-01 13:25N 52°48' E 001°40'0 0.0
2015-Aug-01 12:30N 52°48' E 001°40'0 0.1
2015-Aug-01 11:30N 52°48' E 001°40'0 0.1
2015-Aug-01 10:29N 52°48' E 001°41'0 0.0
2015-Aug-01 09:29N 52°48' E 001°41'0 0.0
2015-Aug-01 08:28N 52°48' E 001°40'0 0.0
2015-Aug-01 07:28N 52°48' E 001°40'0 0.0
2015-Aug-01 06:31N 52°48' E 001°41'0 0.0
2015-Aug-01 05:33N 52°48' E 001°41'7 7.1
2015-Aug-01 04:34N 52°53' E 001°32'1010.1
2015-Aug-01 03:33N 52°58' E 001°18'10 9.7
2015-Aug-01 02:32N 53°03' E 001°04'12 9.0
2015-Aug-01 01:13N 53°11' E 000°50'5 8.2
2015-Aug-01 00:33N 53°15' E 000°43'8 8.1
2015-Jul-31 23:34N 53°21' E 000°34'8 8.3
2015-Jul-31 22:33N 53°27' E 000°24'9 8.6
2015-Jul-31 21:33N 53°32' E 000°13'1312.5
2015-Jul-31 20:33N 53°37' W 000°06'1211.7
2015-Jul-31 19:33N 53°42' W 000°24'9 9.4
2015-Jul-31 18:33N 53°43' W 000°40'1 0.0
2015-Jul-30 16:27N 53°42' W 000°42'910.3
2015-Jul-30 15:33N 53°42' W 000°26'1211.6
2015-Jul-30 14:33N 53°38' W 000°08'1211.6
2015-Jul-30 13:33N 53°33' E 000°10'10 9.5
2015-Jul-30 12:33N 53°33' E 000°26'9 9.2
2015-Jul-30 11:33N 53°35' E 000°41'140 6.4
2015-Jul-29 13:33N 53°30' E 004°37'6 6.1
2015-Jul-29 12:33N 53°31' E 004°47'7 7.1
2015-Jul-29 11:33N 53°33' E 004°59'8 8.4
2015-Jul-29 10:33N 53°36' E 005°12'10 9.8
2015-Jul-29 09:33N 53°39' E 005°28'58 9.5
2015-Jul-29 03:26N 53°55' E 007°02'910.4
2015-Jul-29 02:33N 53°57' E 007°17'1111.1
2015-Jul-29 01:33N 53°59' E 007°36'1010.3
2015-Jul-29 00:33N 53°53' E 007°50'1212.1
2015-Jul-28 23:33N 53°48' E 008°08'1212.3
2015-Jul-28 22:33N 53°40' E 008°24'1010.0
2015-Jul-28 21:33N 53°31' E 008°33'10 9.6
2015-Jul-28 20:33N 53°22' E 008°30'0 0.4
2015-Jul-28 19:31N 53°21' E 008°30'0 0.0
2015-Jul-28 18:31N 53°21' E 008°30'0 0.0
2015-Jul-28 17:33N 53°21' E 008°30'0 0.0
2015-Jul-28 16:33N 53°21' E 008°30'0 0.0
2015-Jul-28 15:32N 53°21' E 008°30'0 0.0
2015-Jul-28 14:32N 53°21' E 008°30'0 0.0
2015-Jul-28 13:31N 53°21' E 008°30'0 0.0
2015-Jul-28 12:31N 53°21' E 008°30'0 0.0
2015-Jul-28 11:31N 53°21' E 008°30'0 0.0
2015-Jul-28 10:33N 53°21' E 008°30'0 0.0
2015-Jul-28 09:33N 53°21' E 008°30'0 0.0
2015-Jul-28 08:29N 53°21' E 008°30'0 0.0
2015-Jul-28 07:29N 53°21' E 008°30'5 5.1
2015-Jul-28 06:33N 53°26' E 008°30'5 5.2
2015-Jul-28 05:32N 53°31' E 008°33'0 0.1
2015-Jul-28 04:31N 53°31' E 008°33'0 0.0
2015-Jul-28 03:31N 53°31' E 008°33'0 0.0
2015-Jul-28 02:33N 53°31' E 008°33'0 0.0
2015-Jul-28 01:33N 53°31' E 008°33'0 0.0
2015-Jul-28 00:33N 53°31' E 008°33'0 0.0
2015-Jul-27 23:32N 53°31' E 008°33'0 0.0
2015-Jul-27 22:32N 53°31' E 008°33'0 0.0
2015-Jul-27 21:31N 53°31' E 008°33'0 0.0
2015-Jul-27 20:31N 53°31' E 008°33'0 0.1
2015-Jul-27 19:33N 53°31' E 008°33'0 0.0
2015-Jul-27 18:33N 53°31' E 008°33'0 0.0
2015-Jul-27 17:33N 53°31' E 008°33'0 0.0
2015-Jul-27 16:32N 53°31' E 008°33'0 0.1
2015-Jul-27 15:32N 53°31' E 008°33'0 0.0
2015-Jul-27 14:28N 53°31' E 008°33'0 0.0
2015-Jul-27 13:31N 53°31' E 008°33'0 0.0
2015-Jul-27 12:33N 53°31' E 008°33'0 0.0
2015-Jul-27 11:33N 53°31' E 008°33'0 0.0
2015-Jul-27 10:33N 53°31' E 008°33'0 0.0
2015-Jul-27 09:32N 53°31' E 008°33'0 0.0
2015-Jul-27 08:29N 53°31' E 008°33'0 0.1
2015-Jul-27 07:31N 53°31' E 008°33'0 0.0
2015-Jul-27 06:31N 53°31' E 008°33'0 0.0
2015-Jul-27 05:33N 53°31' E 008°33'0 0.0
2015-Jul-27 04:33N 53°31' E 008°33'0 0.0
2015-Jul-27 03:33N 53°31' E 008°33'0 0.1
2015-Jul-27 02:32N 53°31' E 008°33'0 0.0
2015-Jul-27 01:32N 53°31' E 008°33'0 0.0
2015-Jul-27 00:31N 53°31' E 008°33'0 0.0
2015-Jul-26 23:31N 53°31' E 008°33'0 0.0
2015-Jul-26 22:33N 53°31' E 008°33'0 0.0
2015-Jul-26 21:33N 53°31' E 008°33'0 0.0
2015-Jul-26 20:32N 53°31' E 008°33'0 0.1
2015-Jul-26 19:29N 53°31' E 008°33'0 0.0
2015-Jul-26 18:32N 53°31' E 008°33'0 0.0
2015-Jul-26 17:31N 53°31' E 008°33'0 0.0
2015-Jul-26 16:31N 53°31' E 008°33'0 0.0
2015-Jul-26 15:33N 53°31' E 008°33'0 0.1
2015-Jul-26 14:33N 53°31' E 008°33'0 0.0
2015-Jul-26 13:32N 53°31' E 008°33'0 0.0
2015-Jul-26 12:32N 53°31' E 008°33'0 0.0
2015-Jul-26 11:32N 53°31' E 008°33'0 0.0
2015-Jul-26 10:31N 53°31' E 008°33'0 0.0
2015-Jul-26 09:31N 53°31' E 008°33'0 0.0
2015-Jul-26 08:30N 53°31' E 008°33'0 0.0
2015-Jul-26 07:33N 53°31' E 008°33'0 0.1
2015-Jul-26 06:29N 53°31' E 008°33'0 0.0
2015-Jul-26 05:29N 53°31' E 008°33'0 0.0
2015-Jul-26 04:32N 53°31' E 008°33'0 0.1
2015-Jul-26 03:31N 53°31' E 008°33'0 0.0
2015-Jul-26 02:31N 53°31' E 008°33'0 0.0
2015-Jul-26 01:33N 53°31' E 008°33'0 0.0
2015-Jul-26 00:33N 53°31' E 008°33'0 0.0
2015-Jul-25 23:32N 53°31' E 008°33'0 0.0
2015-Jul-25 22:32N 53°31' E 008°33'0 0.0
2015-Jul-25 21:32N 53°31' E 008°33'0 0.0
2015-Jul-25 20:31N 53°31' E 008°33'0 0.0
2015-Jul-25 19:31N 53°31' E 008°33'0 0.1
2015-Jul-25 18:33N 53°31' E 008°33'0 0.0
2015-Jul-25 17:33N 53°31' E 008°33'0 0.0
2015-Jul-25 16:32N 53°31' E 008°33'0 0.0
2015-Jul-25 15:32N 53°31' E 008°33'0 0.0
2015-Jul-25 14:31N 53°31' E 008°33'0 0.1
2015-Jul-25 13:28N 53°31' E 008°33'0 0.1
2015-Jul-25 12:31N 53°31' E 008°33'0 0.0
2015-Jul-25 11:33N 53°31' E 008°33'0 0.0
2015-Jul-25 10:33N 53°31' E 008°33'0 0.0
2015-Jul-25 09:32N 53°31' E 008°33'0 0.0
2015-Jul-25 08:32N 53°31' E 008°33'0 0.0
2015-Jul-25 07:32N 53°31' E 008°33'0 0.1
2015-Jul-25 06:31N 53°31' E 008°33'0 0.0
2015-Jul-25 05:31N 53°31' E 008°33'0 0.0
2015-Jul-25 04:33N 53°31' E 008°33'0 0.0
2015-Jul-25 03:33N 53°31' E 008°33'0 0.0
2015-Jul-25 02:32N 53°31' E 008°33'0 0.1
2015-Jul-25 01:32N 53°31' E 008°33'0 0.0
2015-Jul-25 00:31N 53°31' E 008°33'0 0.1
2015-Jul-24 23:28N 53°31' E 008°33'0 0.0
2015-Jul-24 22:31N 53°31' E 008°33'0 0.0
2015-Jul-24 21:33N 53°31' E 008°33'0 0.0
2015-Jul-24 20:33N 53°31' E 008°33'0 0.0
2015-Jul-24 19:32N 53°31' E 008°33'0 0.1
2015-Jul-24 18:32N 53°31' E 008°33'0 0.0
2015-Jul-24 17:31N 53°31' E 008°33'0 0.0
2015-Jul-24 16:25N 53°31' E 008°33'0 0.0
2015-Jul-24 15:31N 53°31' E 008°33'0 0.0
2015-Jul-24 14:33N 53°31' E 008°33'0 0.0
2015-Jul-24 13:33N 53°31' E 008°33'0 0.1
2015-Jul-24 12:32N 53°31' E 008°33'0 0.1
2015-Jul-24 11:32N 53°31' E 008°33'0 0.0
2015-Jul-24 10:31N 53°31' E 008°33'0 0.0
2015-Jul-24 09:31N 53°31' E 008°33'0 0.0
2015-Jul-24 08:31N 53°31' E 008°33'0 0.0
2015-Jul-24 07:33N 53°31' E 008°33'0 0.0
2015-Jul-24 06:33N 53°31' E 008°33'0 0.1
2015-Jul-24 05:32N 53°31' E 008°33'0 0.0
2015-Jul-24 04:32N 53°31' E 008°33'0 0.0
2015-Jul-24 03:28N 53°31' E 008°33'0 0.0
2015-Jul-24 02:31N 53°31' E 008°33'0 0.0
2015-Jul-24 01:30N 53°31' E 008°33'0 0.1
2015-Jul-24 00:33N 53°31' E 008°33'0 0.1
2015-Jul-23 23:33N 53°31' E 008°33'0 0.0
2015-Jul-23 22:32N 53°31' E 008°33'0 0.0
2015-Jul-23 21:32N 53°31' E 008°33'0 0.0
2015-Jul-23 20:31N 53°31' E 008°33'0 0.0
2015-Jul-23 19:28N 53°31' E 008°33'0 0.0
2015-Jul-23 18:30N 53°31' E 008°33'0 0.1
2015-Jul-23 17:33N 53°31' E 008°33'0 0.1
2015-Jul-23 16:33N 53°31' E 008°33'0 0.0
2015-Jul-23 15:32N 53°31' E 008°33'0 0.0
2015-Jul-23 14:32N 53°31' E 008°33'0 0.0
2015-Jul-23 13:31N 53°31' E 008°33'0 0.0
2015-Jul-23 12:28N 53°31' E 008°33'0 0.1
2015-Jul-23 11:33N 53°31' E 008°33'0 0.0
2015-Jul-23 10:27N 53°31' E 008°33'0 0.0
2015-Jul-23 09:33N 53°31' E 008°33'0 0.0
2015-Jul-23 08:32N 53°31' E 008°33'0 0.0
2015-Jul-23 07:32N 53°31' E 008°33'0 0.0
2015-Jul-23 06:31N 53°31' E 008°33'0 0.0
2015-Jul-23 05:31N 53°31' E 008°33'0 0.1
2015-Jul-23 04:33N 53°31' E 008°33'  
Track history (hours):
 
Tides and Currents Weather Stations Pressure Air Temp Water Temp Dewpoint Dewpoint Depression Visibility Wind Speed Wind Dir Waves Ship Positions

Filia Ariea

Last reported at 2015-Aug-02 03:31 UTC. Time now 2015-Aug-02 04:22 UTC.
Position N 52°48' E 001°40'.

Length 90 m; draft 3.2 m.

Type: Cargo ship. MMSI: 244662000.

Date/timePositionNaut miles runAvg speedWind from/ knotsBaromVisibWave heightAir tempDewpointWater temp
2015-Aug-02 03:31N 52°48' E 001°40'0 0.0
2015-Aug-02 02:33N 52°48' E 001°40'0 0.0
2015-Aug-02 01:33N 52°48' E 001°40'0 0.0
2015-Aug-02 00:29N 52°48' E 001°40'0 0.1
2015-Aug-01 23:29N 52°48' E 001°40'0 0.1
2015-Aug-01 22:29N 52°48' E 001°41'0 0.0
2015-Aug-01 21:31N 52°48' E 001°40'0 0.0
2015-Aug-01 20:28N 52°48' E 001°40'0 0.0
2015-Aug-01 19:33N 52°48' E 001°40'0 0.0
2015-Aug-01 18:33N 52°48' E 001°40'0 0.1
2015-Aug-01 17:32N 52°48' E 001°40'0 0.1
2015-Aug-01 16:32N 52°48' E 001°40'0 0.0
2015-Aug-01 15:32N 52°48' E 001°40'0 0.0
2015-Aug-01 14:31N 52°48' E 001°40'0 0.0
2015-Aug-01 13:25N 52°48' E 001°40'0 0.0
2015-Aug-01 12:30N 52°48' E 001°40'0 0.1
2015-Aug-01 11:30N 52°48' E 001°40'0 0.1
2015-Aug-01 10:29N 52°48' E 001°41'0 0.0
2015-Aug-01 09:29N 52°48' E 001°41'0 0.0
2015-Aug-01 08:28N 52°48' E 001°40'0 0.0
2015-Aug-01 07:28N 52°48' E 001°40'0 0.0
2015-Aug-01 06:31N 52°48' E 001°41'0 0.0
2015-Aug-01 05:33N 52°48' E 001°41'7 7.1
2015-Aug-01 04:34N 52°53' E 001°32'1010.1
2015-Aug-01 03:33N 52°58' E 001°18'10 9.7
2015-Aug-01 02:32N 53°03' E 001°04'12 9.0
2015-Aug-01 01:13N 53°11' E 000°50'5 8.2
2015-Aug-01 00:33N 53°15' E 000°43'8 8.1
2015-Jul-31 23:34N 53°21' E 000°34'8 8.3
2015-Jul-31 22:33N 53°27' E 000°24'9 8.6
2015-Jul-31 21:33N 53°32' E 000°13'1312.5
2015-Jul-31 20:33N 53°37' W 000°06'1211.7
2015-Jul-31 19:33N 53°42' W 000°24'9 9.4
2015-Jul-31 18:33N 53°43' W 000°40'1 0.0
2015-Jul-30 16:27N 53°42' W 000°42'910.3
2015-Jul-30 15:33N 53°42' W 000°26'1211.6
2015-Jul-30 14:33N 53°38' W 000°08'1211.6
2015-Jul-30 13:33N 53°33' E 000°10'10 9.5
2015-Jul-30 12:33N 53°33' E 000°26'9 9.2
2015-Jul-30 11:33N 53°35' E 000°41'140 6.4
2015-Jul-29 13:33N 53°30' E 004°37'6 6.1
2015-Jul-29 12:33N 53°31' E 004°47'7 7.1
2015-Jul-29 11:33N 53°33' E 004°59'8 8.4
2015-Jul-29 10:33N 53°36' E 005°12'10 9.8
2015-Jul-29 09:33N 53°39' E 005°28'58 9.5
2015-Jul-29 03:26N 53°55' E 007°02'910.4
2015-Jul-29 02:33N 53°57' E 007°17'1111.1
2015-Jul-29 01:33N 53°59' E 007°36'1010.3
2015-Jul-29 00:33N 53°53' E 007°50'1212.1
2015-Jul-28 23:33N 53°48' E 008°08'1212.3
2015-Jul-28 22:33N 53°40' E 008°24'1010.0
2015-Jul-28 21:33N 53°31' E 008°33'10 9.6
2015-Jul-28 20:33N 53°22' E 008°30'0 0.4
2015-Jul-28 19:31N 53°21' E 008°30'0 0.0
2015-Jul-28 18:31N 53°21' E 008°30'0 0.0
2015-Jul-28 17:33N 53°21' E 008°30'0 0.0
2015-Jul-28 16:33N 53°21' E 008°30'0 0.0
2015-Jul-28 15:32N 53°21' E 008°30'0 0.0
2015-Jul-28 14:32N 53°21' E 008°30'0 0.0
2015-Jul-28 13:31N 53°21' E 008°30'0 0.0
2015-Jul-28 12:31N 53°21' E 008°30'0 0.0
2015-Jul-28 11:31N 53°21' E 008°30'0 0.0
2015-Jul-28 10:33N 53°21' E 008°30'0 0.0
2015-Jul-28 09:33N 53°21' E 008°30'0 0.0
2015-Jul-28 08:29N 53°21' E 008°30'0 0.0
2015-Jul-28 07:29N 53°21' E 008°30'5 5.1
2015-Jul-28 06:33N 53°26' E 008°30'5 5.2
2015-Jul-28 05:32N 53°31' E 008°33'0 0.1
2015-Jul-28 04:31N 53°31' E 008°33'0 0.0
2015-Jul-28 03:31N 53°31' E 008°33'0 0.0
2015-Jul-28 02:33N 53°31' E 008°33'0 0.0
2015-Jul-28 01:33N 53°31' E 008°33'0 0.0
2015-Jul-28 00:33N 53°31' E 008°33'0 0.0
2015-Jul-27 23:32N 53°31' E 008°33'0 0.0
2015-Jul-27 22:32N 53°31' E 008°33'0 0.0
2015-Jul-27 21:31N 53°31' E 008°33'0 0.0
2015-Jul-27 20:31N 53°31' E 008°33'0 0.1
2015-Jul-27 19:33N 53°31' E 008°33'0 0.0
2015-Jul-27 18:33N 53°31' E 008°33'0 0.0
2015-Jul-27 17:33N 53°31' E 008°33'0 0.0
2015-Jul-27 16:32N 53°31' E 008°33'0 0.1
2015-Jul-27 15:32N 53°31' E 008°33'0 0.0
2015-Jul-27 14:28N 53°31' E 008°33'0 0.0
2015-Jul-27 13:31N 53°31' E 008°33'0 0.0
2015-Jul-27 12:33N 53°31' E 008°33'0 0.0
2015-Jul-27 11:33N 53°31' E 008°33'0 0.0
2015-Jul-27 10:33N 53°31' E 008°33'0 0.0
2015-Jul-27 09:32N 53°31' E 008°33'0 0.0
2015-Jul-27 08:29N 53°31' E 008°33'0 0.1
2015-Jul-27 07:31N 53°31' E 008°33'0 0.0
2015-Jul-27 06:31N 53°31' E 008°33'0 0.0
2015-Jul-27 05:33N 53°31' E 008°33'0 0.0
2015-Jul-27 04:33N 53°31' E 008°33'0 0.0
2015-Jul-27 03:33N 53°31' E 008°33'0 0.1
2015-Jul-27 02:32N 53°31' E 008°33'0 0.0
2015-Jul-27 01:32N 53°31' E 008°33'0 0.0
2015-Jul-27 00:31N 53°31' E 008°33'0 0.0
2015-Jul-26 23:31N 53°31' E 008°33'0 0.0
2015-Jul-26 22:33N 53°31' E 008°33'0 0.0
2015-Jul-26 21:33N 53°31' E 008°33'0 0.0
2015-Jul-26 20:32N 53°31' E 008°33'0 0.1
2015-Jul-26 19:29N 53°31' E 008°33'0 0.0
2015-Jul-26 18:32N 53°31' E 008°33'0 0.0
2015-Jul-26 17:31N 53°31' E 008°33'0 0.0
2015-Jul-26 16:31N 53°31' E 008°33'0 0.0
2015-Jul-26 15:33N 53°31' E 008°33'0 0.1
2015-Jul-26 14:33N 53°31' E 008°33'0 0.0
2015-Jul-26 13:32N 53°31' E 008°33'0 0.0
2015-Jul-26 12:32N 53°31' E 008°33'0 0.0
2015-Jul-26 11:32N 53°31' E 008°33'0 0.0
2015-Jul-26 10:31N 53°31' E 008°33'0 0.0
2015-Jul-26 09:31N 53°31' E 008°33'0 0.0
2015-Jul-26 08:30N 53°31' E 008°33'0 0.0
2015-Jul-26 07:33N 53°31' E 008°33'0 0.1
2015-Jul-26 06:29N 53°31' E 008°33'0 0.0
2015-Jul-26 05:29N 53°31' E 008°33'0 0.0
2015-Jul-26 04:32N 53°31' E 008°33'0 0.1
2015-Jul-26 03:31N 53°31' E 008°33'0 0.0
2015-Jul-26 02:31N 53°31' E 008°33'0 0.0
2015-Jul-26 01:33N 53°31' E 008°33'0 0.0
2015-Jul-26 00:33N 53°31' E 008°33'0 0.0
2015-Jul-25 23:32N 53°31' E 008°33'0 0.0
2015-Jul-25 22:32N 53°31' E 008°33'0 0.0
2015-Jul-25 21:32N 53°31' E 008°33'0 0.0
2015-Jul-25 20:31N 53°31' E 008°33'0 0.0
2015-Jul-25 19:31N 53°31' E 008°33'0 0.1
2015-Jul-25 18:33N 53°31' E 008°33'0 0.0
2015-Jul-25 17:33N 53°31' E 008°33'0 0.0
2015-Jul-25 16:32N 53°31' E 008°33'0 0.0
2015-Jul-25 15:32N 53°31' E 008°33'0 0.0
2015-Jul-25 14:31N 53°31' E 008°33'0 0.1
2015-Jul-25 13:28N 53°31' E 008°33'0 0.1
2015-Jul-25 12:31N 53°31' E 008°33'0 0.0
2015-Jul-25 11:33N 53°31' E 008°33'0 0.0
2015-Jul-25 10:33N 53°31' E 008°33'0 0.0
2015-Jul-25 09:32N 53°31' E 008°33'0 0.0
2015-Jul-25 08:32N 53°31' E 008°33'0 0.0
2015-Jul-25 07:32N 53°31' E 008°33'0 0.1
2015-Jul-25 06:31N 53°31' E 008°33'0 0.0
2015-Jul-25 05:31N 53°31' E 008°33'0 0.0
2015-Jul-25 04:33N 53°31' E 008°33'0 0.0
2015-Jul-25 03:33N 53°31' E 008°33'0 0.0
2015-Jul-25 02:32N 53°31' E 008°33'0 0.1
2015-Jul-25 01:32N 53°31' E 008°33'0 0.0
2015-Jul-25 00:31N 53°31' E 008°33'0 0.1
2015-Jul-24 23:28N 53°31' E 008°33'0 0.0
2015-Jul-24 22:31N 53°31' E 008°33'0 0.0
2015-Jul-24 21:33N 53°31' E 008°33'0 0.0
2015-Jul-24 20:33N 53°31' E 008°33'0 0.0
2015-Jul-24 19:32N 53°31' E 008°33'0 0.1
2015-Jul-24 18:32N 53°31' E 008°33'0 0.0
2015-Jul-24 17:31N 53°31' E 008°33'0 0.0
2015-Jul-24 16:25N 53°31' E 008°33'0 0.0
2015-Jul-24 15:31N 53°31' E 008°33'0 0.0
2015-Jul-24 14:33N 53°31' E 008°33'0 0.0
2015-Jul-24 13:33N 53°31' E 008°33'0 0.1
2015-Jul-24 12:32N 53°31' E 008°33'0 0.1
2015-Jul-24 11:32N 53°31' E 008°33'0 0.0
2015-Jul-24 10:31N 53°31' E 008°33'0 0.0
2015-Jul-24 09:31N 53°31' E 008°33'0 0.0
2015-Jul-24 08:31N 53°31' E 008°33'0 0.0
2015-Jul-24 07:33N 53°31' E 008°33'0 0.0
2015-Jul-24 06:33N 53°31' E 008°33'0 0.1
2015-Jul-24 05:32N 53°31' E 008°33'0 0.0
2015-Jul-24 04:32N 53°31' E 008°33'0 0.0
2015-Jul-24 03:28N 53°31' E 008°33'0 0.0
2015-Jul-24 02:31N 53°31' E 008°33'0 0.0
2015-Jul-24 01:30N 53°31' E 008°33'0 0.1
2015-Jul-24 00:33N 53°31' E 008°33'0 0.1
2015-Jul-23 23:33N 53°31' E 008°33'0 0.0
2015-Jul-23 22:32N 53°31' E 008°33'0 0.0
2015-Jul-23 21:32N 53°31' E 008°33'0 0.0
2015-Jul-23 20:31N 53°31' E 008°33'0 0.0
2015-Jul-23 19:28N 53°31' E 008°33'0 0.0
2015-Jul-23 18:30N 53°31' E 008°33'0 0.1
2015-Jul-23 17:33N 53°31' E 008°33'0 0.1
2015-Jul-23 16:33N 53°31' E 008°33'0 0.0
2015-Jul-23 15:32N 53°31' E 008°33'0 0.0
2015-Jul-23 14:32N 53°31' E 008°33'0 0.0
2015-Jul-23 13:31N 53°31' E 008°33'0 0.0
2015-Jul-23 12:28N 53°31' E 008°33'0 0.1
2015-Jul-23 11:33N 53°31' E 008°33'0 0.0
2015-Jul-23 10:27N 53°31' E 008°33'0 0.0
2015-Jul-23 09:33N 53°31' E 008°33'0 0.0
2015-Jul-23 08:32N 53°31' E 008°33'0 0.0
2015-Jul-23 07:32N 53°31' E 008°33'0 0.0
2015-Jul-23 06:31N 53°31' E 008°33'0 0.0
2015-Jul-23 05:31N 53°31' E 008°33'0 0.1
2015-Jul-23 04:33N 53°31' E 008°33'  

Dump ship's entire track history